WMKC/KBR METAR and TAF weather

Enter ICAO airport designator
Station Type Date Time Source
WMKC METAR 2019/02/20 07:00 UTC NOAA

WMKC 200700Z 09011KT 050V150 9999 SCT018 BKN280 30/24 Q1013


Station Type Date Time Source
WMKC Decoded METAR 2019/02/20 07:00 UTC NOAA

Kota Bharu, Malaysia (WMKC) 06-10N 102-17E 5M
Feb 20, 2019 - 02:00 AM EST / 2019.02.20 0700 UTC
Wind: from the E (090 degrees) at 13 MPH (11 KT) (direction variable):0
Visibility: greater than 7 mile(s):0
Sky conditions: mostly cloudy
Temperature: 86 F (30 C)
Heat index: 95.0 F (35.0 C):1
Dew Point: 75 F (24 C)
Relative Humidity: 70%
Pressure (altimeter): 29.91 in. Hg (1013 hPa)
ob: WMKC 200700Z 09011KT 050V150 9999 SCT018 BKN280 30/24 Q1013
cycle: 7

Station Type Date Time Source
WMKC TAF 2019/02/20 06:00 UTC NOAA

TAF WMKC 200500Z 2006/2106 10005KT 9999 SCT018 BKN280


Example: see airport list